Time;durP1;ratioP1;P1;durP2;ratioP2;P2;SDS_P1;SDS_P2;PMS_P1;PMS_P2;Temp;Humidity;BMP_temperature;BMP_pressure;BME280_temperature;BME280_humidity;BME280_pressure;Samples;Min_cycle;Max_cycle;Signal;HPM_P1;HPM_P2
2022/09/27 00:01:30;;;;;;;0.40;0.40;;;12.50;99.90;;;;;;5051763;28;20419;-67
2022/09/27 00:04:18;;;;;;;0.40;0.40;;;12.50;99.90;;;;;;5052048;28;20462;-66
2022/09/27 00:07:09;;;;;;;0.40;0.40;;;12.50;99.90;;;;;;5051490;28;20928;-67
2022/09/27 00:09:59;;;;;;;0.40;0.40;;;12.50;99.90;;;;;;5052780;28;20515;-67
2022/09/27 00:12:48;;;;;;;0.40;0.40;;;12.50;99.90;;;;;;5051880;28;20506;-67
2022/09/27 00:15:36;;;;;;;0.40;0.40;;;12.40;99.90;;;;;;5053860;28;21057;-66
2022/09/27 00:18:24;;;;;;;0.40;0.40;;;12.40;99.90;;;;;;5055574;28;20424;-66
2022/09/27 00:21:14;;;;;;;0.40;0.40;;;12.40;99.90;;;;;;5056943;28;20838;-66
2022/09/27 00:24:02;;;;;;;0.40;0.40;;;12.40;99.90;;;;;;5056347;28;20602;-67
2022/09/27 00:26:51;;;;;;;0.40;0.40;;;12.40;99.90;;;;;;5057136;28;20518;-67
2022/09/27 00:29:40;;;;;;;0.40;0.40;;;12.40;99.90;;;;;;5056264;28;20431;-67
2022/09/27 00:32:28;;;;;;;4.10;3.80;;;12.40;99.90;;;;;;5056279;28;20432;-67
2022/09/27 00:35:16;;;;;;;0.40;0.40;;;12.40;99.90;;;;;;5056305;28;21070;-66
2022/09/27 00:38:05;;;;;;;0.40;0.40;;;12.40;99.90;;;;;;5057169;28;20501;-67
2022/09/27 00:40:53;;;;;;;0.40;0.40;;;12.40;99.90;;;;;;5056961;28;20569;-66
2022/09/27 00:43:48;;;;;;;0.40;0.40;;;12.40;99.90;;;;;;5055177;28;20432;-68
2022/09/27 00:46:42;;;;;;;0.40;0.40;;;12.30;99.90;;;;;;5055552;28;21021;-66
2022/09/27 00:49:35;;;;;;;0.50;0.50;;;12.40;99.90;;;;;;5055877;28;20443;-67
2022/09/27 00:52:27;;;;;;;0.40;0.40;;;12.40;99.90;;;;;;5054897;28;20424;-66
2022/09/27 00:55:19;;;;;;;0.40;0.40;;;12.40;99.90;;;;;;5054526;28;20467;-66
2022/09/27 00:58:08;;;;;;;0.40;0.40;;;12.40;99.90;;;;;;5055979;28;20471;-67
2022/09/27 01:01:01;;;;;;;0.40;0.40;;;12.30;99.90;;;;;;5056547;28;20935;-66
2022/09/27 01:03:53;;;;;;;0.40;0.40;;;12.30;99.90;;;;;;5055576;28;20424;-66
2022/09/27 01:06:41;;;;;;;0.40;0.40;;;12.30;99.90;;;;;;5055208;28;20566;-66
2022/09/27 01:09:29;;;;;;;0.40;0.40;;;12.30;99.90;;;;;;5055329;28;20907;-66
2022/09/27 01:12:23;;;;;;;0.50;0.50;;;12.40;99.90;;;;;;5056134;28;20513;-67
2022/09/27 01:15:20;;;;;;;0.40;0.40;;;12.30;99.90;;;;;;5054323;28;20531;-67
2022/09/27 01:18:24;;;;;;;0.40;0.40;;;12.30;99.90;;;;;;5055546;28;20450;-67
2022/09/27 01:21:35;;;;;;;0.40;0.40;;;12.30;99.90;;;;;;5054651;28;20411;-67
2022/09/27 01:25:04;;;;;;;0.40;0.40;;;12.40;99.90;;;;;;5055698;28;20601;-67
2022/09/27 01:28:07;;;;;;;0.40;0.40;;;12.40;99.90;;;;;;5053632;28;20481;-67
2022/09/27 01:31:03;;;;;;;0.40;0.40;;;12.40;99.90;;;;;;5055446;28;20500;-67
2022/09/27 01:34:03;;;;;;;0.40;0.40;;;12.50;99.90;;;;;;5055061;28;20431;-67
2022/09/27 01:36:56;;;;;;;0.40;0.40;;;12.50;99.90;;;;;;5054696;28;20507;-67
2022/09/27 01:39:50;;;;;;;0.40;0.40;;;12.50;99.90;;;;;;5054908;28;20487;-67
2022/09/27 01:42:45;;;;;;;0.40;0.40;;;12.50;99.90;;;;;;5055932;28;20507;-67
2022/09/27 01:45:38;;;;;;;0.40;0.40;;;12.50;99.90;;;;;;5055806;28;20533;-67
2022/09/27 01:48:32;;;;;;;0.40;0.40;;;12.50;99.90;;;;;;5055313;28;20549;-67
2022/09/27 01:51:25;;;;;;;0.40;0.40;;;12.50;99.90;;;;;;5055589;28;20428;-67
2022/09/27 01:54:18;;;;;;;0.47;0.47;;;12.50;99.90;;;;;;5055361;28;20440;-67
2022/09/27 01:57:09;;;;;;;0.40;0.40;;;12.40;99.90;;;;;;5050947;28;20818;-67
2022/09/27 02:00:02;;;;;;;0.40;0.40;;;12.50;99.90;;;;;;5051093;28;20739;-67
2022/09/27 02:02:55;;;;;;;0.50;0.50;;;12.50;99.90;;;;;;5055360;28;20571;-67
2022/09/27 02:05:49;;;;;;;0.40;0.40;;;12.50;99.90;;;;;;5054228;28;20459;-67
2022/09/27 02:08:41;;;;;;;0.40;0.40;;;12.50;99.90;;;;;;5055746;28;20511;-67
2022/09/27 02:11:29;;;;;;;0.40;0.40;;;12.50;99.90;;;;;;5056766;28;20511;-67
2022/09/27 02:14:22;;;;;;;0.40;0.40;;;12.50;99.90;;;;;;5055794;28;20531;-68
2022/09/27 02:17:19;;;;;;;0.40;0.40;;;12.50;99.90;;;;;;5056883;28;20459;-67
2022/09/27 02:20:12;;;;;;;0.40;0.40;;;12.50;99.90;;;;;;5054160;28;20621;-67
2022/09/27 02:23:14;;;;;;;0.40;0.40;;;12.50;99.90;;;;;;5053886;28;20570;-67
2022/09/27 02:26:11;;;;;;;0.40;0.40;;;12.50;99.90;;;;;;5054025;28;20474;-67
2022/09/27 02:29:07;;;;;;;0.40;0.40;;;12.50;99.90;;;;;;5056037;28;21026;-67
2022/09/27 02:31:55;;;;;;;0.40;0.40;;;12.50;99.90;;;;;;5057379;28;20478;-68
2022/09/27 02:34:44;;;;;;;0.40;0.40;;;12.50;99.90;;;;;;5056184;28;20489;-67
2022/09/27 02:37:33;;;;;;;0.40;0.40;;;12.50;99.90;;;;;;5057562;28;20519;-67
2022/09/27 02:40:23;;;;;;;0.40;0.40;;;12.50;99.90;;;;;;5055761;28;20486;-67
2022/09/27 02:43:13;;;;;;;0.40;0.40;;;12.50;99.90;;;;;;5057371;28;20431;-68
2022/09/27 02:46:15;;;;;;;0.40;0.40;;;12.50;99.90;;;;;;5075004;28;20474;-67
2022/09/27 02:49:18;;;;;;;0.40;0.40;;;12.50;99.90;;;;;;5073708;28;20435;-68
2022/09/27 02:52:18;;;;;;;0.40;0.40;;;12.50;99.90;;;;;;5073114;28;20518;-67
2022/09/27 02:55:14;;;;;;;0.40;0.40;;;12.50;99.90;;;;;;5072138;28;20479;-68
2022/09/27 02:58:12;;;;;;;0.40;0.40;;;12.40;99.90;;;;;;5071920;28;20487;-68
2022/09/27 03:01:06;;;;;;;0.40;0.40;;;12.40;99.90;;;;;;5072475;28;20524;-68
2022/09/27 03:04:00;;;;;;;0.40;0.40;;;12.40;99.90;;;;;;5073093;28;20463;-67
2022/09/27 03:06:50;;;;;;;0.40;0.40;;;12.40;99.90;;;;;;5072593;28;20428;-68
2022/09/27 03:09:43;;;;;;;0.40;0.40;;;12.40;99.90;;;;;;5073137;28;20508;-68
2022/09/27 03:12:31;;;;;;;0.40;0.40;;;12.40;99.90;;;;;;5066298;28;20523;-67
2022/09/27 03:15:21;;;;;;;0.40;0.40;;;12.40;99.90;;;;;;5064570;28;20503;-67
2022/09/27 03:18:09;;;;;;;0.40;0.40;;;12.40;99.90;;;;;;5053298;28;20428;-67
2022/09/27 03:20:57;;;;;;;0.40;0.40;;;12.40;99.90;;;;;;5053408;28;20518;-68
2022/09/27 03:23:45;;;;;;;0.40;0.40;;;12.30;99.90;;;;;;5054462;28;20511;-67
2022/09/27 03:26:33;;;;;;;0.40;0.40;;;12.30;99.90;;;;;;5053332;28;20523;-67
2022/09/27 03:29:21;;;;;;;0.40;0.40;;;12.30;99.90;;;;;;5056419;28;20432;-67
2022/09/27 03:32:11;;;;;;;0.40;0.40;;;12.30;99.90;;;;;;5057031;28;20506;-67
2022/09/27 03:34:59;;;;;;;0.40;0.40;;;12.30;99.90;;;;;;5052357;28;20586;-67
2022/09/27 03:37:48;;;;;;;0.40;0.40;;;12.20;99.90;;;;;;5053386;28;20511;-67
2022/09/27 03:40:36;;;;;;;0.40;0.40;;;12.20;99.90;;;;;;5053332;28;20585;-67
2022/09/27 03:43:24;;;;;;;0.40;0.40;;;12.10;99.90;;;;;;5053114;28;20944;-67
2022/09/27 03:46:12;;;;;;;0.40;0.40;;;12.10;99.90;;;;;;5053717;28;20456;-67
2022/09/27 03:49:02;;;;;;;0.40;0.40;;;12.10;99.90;;;;;;5053128;28;20424;-67
2022/09/27 03:51:50;;;;;;;0.40;0.40;;;13.80;99.90;;;;;;5053214;28;20510;-67
2022/09/27 03:54:38;;;;;;;0.40;0.40;;;12.00;99.90;;;;;;5053228;28;20531;-67
2022/09/27 03:57:26;;;;;;;0.40;0.40;;;12.00;99.90;;;;;;5054345;28;20448;-67
2022/09/27 04:00:14;;;;;;;0.40;0.40;;;12.00;99.90;;;;;;5052215;28;20470;-67
2022/09/27 04:03:03;;;;;;;0.40;0.40;;;12.00;99.90;;;;;;5052250;28;20567;-67
2022/09/27 04:05:52;;;;;;;0.40;0.40;;;11.90;99.90;;;;;;5053389;28;20586;-67
2022/09/27 04:08:41;;;;;;;0.40;0.40;;;11.90;99.90;;;;;;5052918;28;20466;-67
2022/09/27 04:11:29;;;;;;;0.40;0.40;;;11.90;99.90;;;;;;5052779;28;20567;-67
2022/09/27 04:14:17;;;;;;;0.40;0.40;;;11.90;99.90;;;;;;5051740;28;20490;-67
2022/09/27 04:17:05;;;;;;;0.40;0.40;;;11.80;99.90;;;;;;5053426;28;20424;-68
2022/09/27 04:19:54;;;;;;;0.40;0.40;;;11.80;99.90;;;;;;5053423;28;20431;-67
2022/09/27 04:22:44;;;;;;;0.40;0.40;;;11.80;99.90;;;;;;5053157;28;20502;-67
2022/09/27 04:25:32;;;;;;;0.40;0.40;;;11.70;99.90;;;;;;5053598;28;20492;-67
2022/09/27 04:28:21;;;;;;;0.40;0.40;;;11.70;99.90;;;;;;5054119;28;20440;-67
2022/09/27 04:31:09;;;;;;;0.40;0.40;;;11.80;99.90;;;;;;5052906;28;20520;-67
2022/09/27 04:33:58;;;;;;;0.40;0.40;;;11.70;99.90;;;;;;5052369;28;20438;-67
2022/09/27 04:36:45;;;;;;;0.40;0.40;;;11.70;99.90;;;;;;5053089;28;20586;-67
2022/09/27 04:39:35;;;;;;;0.40;0.40;;;11.70;99.90;;;;;;5051991;28;20963;-67
2022/09/27 04:42:23;;;;;;;0.40;0.40;;;11.70;99.90;;;;;;5053277;28;20540;-67
2022/09/27 04:45:12;;;;;;;0.40;0.40;;;11.70;99.90;;;;;;5052261;28;20451;-67
2022/09/27 04:48:01;;;;;;;0.40;0.40;;;11.70;99.90;;;;;;5052579;28;20432;-67
2022/09/27 04:50:56;;;;;;;0.40;0.40;;;11.70;99.90;;;;;;5053103;28;20424;-67
2022/09/27 04:53:44;;;;;;;0.40;0.40;;;11.60;99.90;;;;;;5053712;28;20513;-67
2022/09/27 04:56:34;;;;;;;0.40;0.40;;;11.60;99.90;;;;;;5053679;28;20478;-67
2022/09/27 04:59:22;;;;;;;0.40;0.40;;;11.60;99.90;;;;;;5053177;28;20420;-67
2022/09/27 05:02:10;;;;;;;0.40;0.40;;;11.60;99.90;;;;;;5057136;28;20546;-67
2022/09/27 05:04:59;;;;;;;0.40;0.40;;;11.60;99.90;;;;;;5057359;28;21053;-67
2022/09/27 05:07:47;;;;;;;0.40;0.40;;;11.60;99.90;;;;;;5057312;28;20905;-67
2022/09/27 05:10:35;;;;;;;0.40;0.40;;;11.50;99.90;;;;;;5055034;28;20507;-67
2022/09/27 05:13:25;;;;;;;0.40;0.40;;;11.50;99.90;;;;;;5055409;28;20867;-67
2022/09/27 05:16:13;;;;;;;0.60;0.60;;;11.50;99.90;;;;;;5055761;28;20470;-67
2022/09/27 05:19:01;;;;;;;0.40;0.40;;;11.50;99.90;;;;;;5055718;28;20519;-67
2022/09/27 05:21:49;;;;;;;0.40;0.40;;;11.50;99.90;;;;;;5057082;28;20542;-68
2022/09/27 05:24:38;;;;;;;0.40;0.40;;;11.50;99.90;;;;;;5055202;28;20456;-68
2022/09/27 05:27:26;;;;;;;0.40;0.40;;;11.50;99.90;;;;;;5056928;28;20432;-68
2022/09/27 05:30:15;;;;;;;0.40;0.40;;;11.60;99.90;;;;;;5056227;28;20439;-68
2022/09/27 05:33:04;;;;;;;0.40;0.40;;;11.60;99.90;;;;;;5055776;28;20466;-68
2022/09/27 05:35:53;;;;;;;0.50;0.50;;;11.60;99.90;;;;;;5055470;28;20534;-68
2022/09/27 05:38:42;;;;;;;0.40;0.40;;;11.50;99.90;;;;;;5056243;28;21066;-68
2022/09/27 05:41:31;;;;;;;0.40;0.40;;;11.60;99.90;;;;;;5055810;28;20535;-68
2022/09/27 05:44:19;;;;;;;0.40;0.40;;;11.60;99.90;;;;;;5055276;28;20582;-67
2022/09/27 05:47:09;;;;;;;0.40;0.40;;;11.60;99.90;;;;;;5056726;28;20793;-67
2022/09/27 05:49:57;;;;;;;0.40;0.40;;;11.50;99.90;;;;;;5056426;28;20469;-68
2022/09/27 05:52:45;;;;;;;0.43;0.43;;;11.60;99.90;;;;;;5055510;28;20420;-67
2022/09/27 05:55:33;;;;;;;0.40;0.40;;;11.60;99.90;;;;;;5054215;28;20440;-68
2022/09/27 05:58:21;;;;;;;0.40;0.40;;;11.70;99.90;;;;;;5056039;28;20456;-68
2022/09/27 06:01:10;;;;;;;0.40;0.40;;;11.70;99.90;;;;;;5052062;28;20515;-68
2022/09/27 06:03:59;;;;;;;0.40;0.40;;;11.80;99.90;;;;;;5056244;28;20539;-67
2022/09/27 06:06:48;;;;;;;0.40;0.40;;;11.80;99.90;;;;;;5061211;28;20474;-67
2022/09/27 06:09:36;;;;;;;0.40;0.40;;;11.80;99.90;;;;;;5057980;28;20460;-68
2022/09/27 06:12:24;;;;;;;0.40;0.40;;;11.90;99.90;;;;;;5065414;28;20487;-68
2022/09/27 06:15:13;;;;;;;0.40;0.40;;;11.90;99.90;;;;;;5064008;28;20479;-68
2022/09/27 06:18:05;;;;;;;0.40;0.40;;;11.80;99.90;;;;;;5067146;28;20452;-68
2022/09/27 06:20:55;;;;;;;0.40;0.40;;;11.80;99.90;;;;;;5059671;28;20459;-68
2022/09/27 06:23:43;;;;;;;1.63;1.63;;;11.90;99.90;;;;;;5055998;28;20510;-68
2022/09/27 06:26:32;;;;;;;0.40;0.40;;;11.80;99.90;;;;;;5055795;28;20424;-68
2022/09/27 06:29:20;;;;;;;0.80;0.80;;;11.90;99.90;;;;;;5055096;28;20424;-68
2022/09/27 06:32:09;;;;;;;0.40;0.40;;;11.90;99.90;;;;;;5055128;28;20424;-68
2022/09/27 06:34:58;;;;;;;0.40;0.40;;;12.00;99.90;;;;;;5055102;28;20984;-68
2022/09/27 06:37:47;;;;;;;0.40;0.40;;;12.00;99.90;;;;;;5055273;28;20965;-68
2022/09/27 06:40:35;;;;;;;0.40;0.40;;;12.00;99.90;;;;;;5054452;28;20554;-68
2022/09/27 06:43:24;;;;;;;0.40;0.40;;;12.10;99.90;;;;;;5048971;28;20507;-68
2022/09/27 06:46:12;;;;;;;0.40;0.40;;;12.20;99.90;;;;;;5044395;28;20541;-68
2022/09/27 06:49:01;;;;;;;0.40;0.40;;;12.30;99.90;;;;;;5054355;28;20443;-68
2022/09/27 06:51:49;;;;;;;0.40;0.40;;;12.40;99.90;;;;;;5044882;28;20442;-68
2022/09/27 06:54:38;;;;;;;0.40;0.40;;;12.40;99.90;;;;;;5051232;28;21023;-68
2022/09/27 07:00:32;;;;;;;0.40;0.40;;;12.60;99.90;;;;;;5053378;28;20431;-68
2022/09/27 07:03:22;;;;;;;0.40;0.40;;;12.60;99.90;;;;;;5054288;28;20991;-68
2022/09/27 07:06:16;;;;;;;0.40;0.40;;;12.70;99.90;;;;;;5054425;28;20429;-68
2022/09/27 07:09:05;;;;;;;0.40;0.40;;;12.70;99.90;;;;;;5051107;28;20436;-69
2022/09/27 07:11:55;;;;;;;0.40;0.40;;;12.80;99.90;;;;;;5033869;28;20945;-68
2022/09/27 07:14:43;;;;;;;0.40;0.40;;;12.80;99.90;;;;;;5034835;28;20590;-69
2022/09/27 07:17:31;;;;;;;0.40;0.40;;;12.80;99.90;;;;;;5048550;28;20452;-69
2022/09/27 07:20:19;;;;;;;0.40;0.40;;;12.80;99.90;;;;;;5053200;28;20803;-68
2022/09/27 07:23:09;;;;;;;1.27;1.17;;;12.90;99.90;;;;;;5044857;28;20531;-69
2022/09/27 07:26:03;;;;;;;0.40;0.40;;;13.00;99.90;;;;;;5077062;23;20628;-68
2022/09/27 07:28:52;;;;;;;0.40;0.40;;;13.00;99.90;;;;;;5077202;28;20454;-68
2022/09/27 07:31:41;;;;;;;0.40;0.40;;;13.10;99.90;;;;;;5074730;28;20427;-68
2022/09/27 07:34:29;;;;;;;0.40;0.40;;;13.00;99.90;;;;;;5074853;28;20496;-68
2022/09/27 07:37:17;;;;;;;0.40;0.40;;;13.20;99.90;;;;;;5055493;28;20416;-68
2022/09/27 07:40:08;;;;;;;0.40;0.40;;;13.20;99.90;;;;;;5054372;28;20525;-68
2022/09/27 07:42:58;;;;;;;2.00;1.90;;;13.30;99.90;;;;;;5032840;28;20468;-69
2022/09/27 07:45:48;;;;;;;0.40;0.40;;;13.40;99.90;;;;;;5044527;28;20456;-66
2022/09/27 07:48:36;;;;;;;0.40;0.40;;;13.50;99.90;;;;;;5053794;28;20524;-67
2022/09/27 07:51:24;;;;;;;0.40;0.40;;;13.70;99.90;;;;;;5053735;28;20575;-66
2022/09/27 07:54:12;;;;;;;0.40;0.40;;;13.70;99.90;;;;;;5033344;28;20461;-66
2022/09/27 07:57:01;;;;;;;0.40;0.40;;;13.70;99.90;;;;;;5034167;28;20530;-67
2022/09/27 07:59:49;;;;;;;0.50;0.50;;;13.60;99.90;;;;;;5036742;28;20608;-67
2022/09/27 08:02:39;;;;;;;0.50;0.50;;;13.60;99.90;;;;;;5035062;28;20485;-66
2022/09/27 08:05:27;;;;;;;0.90;0.90;;;13.50;99.90;;;;;;5034007;28;20882;-67
2022/09/27 08:08:16;;;;;;;0.40;0.40;;;13.60;99.90;;;;;;5035254;28;20456;-68
2022/09/27 08:11:12;;;;;;;0.67;0.67;;;13.60;99.90;;;;;;5031275;28;20479;-68
2022/09/27 08:14:00;;;;;;;0.50;0.50;;;13.50;99.90;;;;;;5041823;28;20461;-68
2022/09/27 08:16:49;;;;;;;0.40;0.40;;;13.40;99.90;;;;;;5032403;28;20547;-67
2022/09/27 08:19:39;;;;;;;0.40;0.40;;;13.40;99.90;;;;;;5041872;28;20424;-66
2022/09/27 08:22:27;;;;;;;0.40;0.40;;;13.30;99.90;;;;;;5032611;28;20436;-67
2022/09/27 08:25:16;;;;;;;0.50;0.50;;;13.40;99.90;;;;;;5033480;28;21000;-66
2022/09/27 08:28:05;;;;;;;0.40;0.40;;;13.40;99.90;;;;;;5032440;28;20522;-67
2022/09/27 08:30:53;;;;;;;0.40;0.40;;;13.60;99.90;;;;;;5033450;28;20860;-66
2022/09/27 08:33:41;;;;;;;0.40;0.40;;;13.70;99.90;;;;;;5031508;28;20427;-68
2022/09/27 08:36:34;;;;;;;0.40;0.40;;;13.80;99.90;;;;;;5033264;28;20468;-66
2022/09/27 08:39:23;;;;;;;0.50;0.50;;;13.90;99.90;;;;;;5041600;28;20470;-67
2022/09/27 08:42:24;;;;;;;0.43;0.43;;;14.00;99.90;;;;;;5054325;28;20443;-67
2022/09/27 08:45:17;;;;;;;0.70;0.70;;;14.10;99.90;;;;;;5054903;28;21123;-67
2022/09/27 08:48:06;;;;;;;0.40;0.40;;;14.20;99.90;;;;;;5035030;28;20429;-68
2022/09/27 08:50:55;;;;;;;0.40;0.40;;;14.40;99.90;;;;;;5035564;28;20522;-67
2022/09/27 08:53:51;;;;;;;0.40;0.40;;;14.40;99.90;;;;;;5034660;28;20421;-68
2022/09/27 08:56:40;;;;;;;0.40;0.40;;;14.50;99.90;;;;;;5037771;28;20474;-69
2022/09/27 08:59:31;;;;;;;0.40;0.40;;;14.60;99.90;;;;;;5053069;28;20943;-71
2022/09/27 09:02:23;;;;;;;0.40;0.40;;;14.70;99.90;;;;;;5052623;28;20428;-70
2022/09/27 09:05:17;;;;;;;0.40;0.40;;;14.70;99.90;;;;;;5049535;28;20436;-70
2022/09/27 09:08:29;;;;;;;0.40;0.40;;;14.80;99.90;;;;;;5051512;28;20201;-68
2022/09/27 09:15:03;;;;;;;0.40;0.40;;;15.00;99.90;;;;;;5054925;28;20669;-67
2022/09/27 09:18:02;;;;;;;0.40;0.40;;;15.30;99.90;;;;;;5051464;28;20271;-68
2022/09/27 09:21:04;;;;;;;0.40;0.40;;;15.50;99.90;;;;;;5049008;28;20332;-68
2022/09/27 09:24:22;;;;;;;0.40;0.40;;;15.50;99.90;;;;;;5053295;28;20609;-69
2022/09/27 09:27:18;;;;;;;0.40;0.40;;;15.70;99.90;;;;;;5052437;28;20627;-66
2022/09/27 09:30:20;;;;;;;0.40;0.40;;;16.00;99.90;;;;;;5052420;28;20288;-70
2022/09/27 09:33:23;;;;;;;0.40;0.40;;;16.20;99.90;;;;;;5053631;28;20212;-68
2022/09/27 09:36:20;;;;;;;0.50;0.50;;;16.50;99.90;;;;;;5052213;28;20277;-67
2022/09/27 09:39:15;;;;;;;0.40;0.40;;;16.50;99.90;;;;;;5054452;28;20901;-71
2022/09/27 09:42:11;;;;;;;0.40;0.40;;;16.40;99.90;;;;;;5053372;28;20281;-67
2022/09/27 09:45:06;;;;;;;0.40;0.40;;;16.00;99.90;;;;;;5054866;28;20308;-68
2022/09/27 09:48:00;;;;;;;0.40;0.40;;;16.10;99.90;;;;;;5043366;28;20234;-68
2022/09/27 09:50:52;;;;;;;0.40;0.40;;;16.00;99.90;;;;;;5048324;28;20246;-69
2022/09/27 09:53:45;;;;;;;0.40;0.40;;;16.10;99.90;;;;;;5041160;28;20705;-68
2022/09/27 09:56:39;;;;;;;0.40;0.40;;;16.10;99.90;;;;;;5033433;28;21092;-68
2022/09/27 09:59:34;;;;;;;0.40;0.40;;;16.30;99.90;;;;;;5034921;28;20206;-70
2022/09/27 10:02:31;;;;;;;0.40;0.40;;;16.50;99.90;;;;;;5033695;28;20400;-69
2022/09/27 10:05:21;;;;;;;0.40;0.40;;;16.60;99.90;;;;;;5032663;28;20702;-69
2022/09/27 10:08:17;;;;;;;0.40;0.40;;;16.40;99.90;;;;;;5044782;28;20251;-66
2022/09/27 10:11:06;;;;;;;0.40;0.40;;;16.30;99.90;;;;;;5031899;28;20262;-68
2022/09/27 10:13:55;;;;;;;0.50;0.50;;;16.20;99.90;;;;;;5032125;28;20286;-70
2022/09/27 10:16:47;;;;;;;0.50;0.50;;;16.20;99.90;;;;;;5034672;28;20362;-68
2022/09/27 10:19:38;;;;;;;0.40;0.40;;;16.20;99.90;;;;;;5031627;28;20206;-66
2022/09/27 10:22:31;;;;;;;0.40;0.40;;;16.20;99.90;;;;;;5047294;28;20679;-70
2022/09/27 10:25:20;;;;;;;0.50;0.50;;;16.20;99.90;;;;;;5051515;28;20244;-69
2022/09/27 10:28:08;;;;;;;0.40;0.40;;;16.40;99.90;;;;;;5037512;28;20310;-70
2022/09/27 10:30:58;;;;;;;0.40;0.40;;;16.60;99.90;;;;;;5038111;28;20208;-71
2022/09/27 10:33:54;;;;;;;0.40;0.40;;;16.90;99.90;;;;;;5053425;28;20698;-68
2022/09/27 10:36:44;;;;;;;0.40;0.40;;;17.00;99.90;;;;;;5051554;28;20226;-69
2022/09/27 10:39:32;;;;;;;0.40;0.40;;;17.20;99.90;;;;;;5036113;28;20866;-69
2022/09/27 10:42:22;;;;;;;0.40;0.40;;;17.30;99.90;;;;;;5032904;28;20202;-67
2022/09/27 10:45:30;;;;;;;0.40;0.40;;;17.30;99.90;;;;;;5033462;28;20317;-67
2022/09/27 10:48:21;;;;;;;0.40;0.40;;;17.40;99.90;;;;;;5037470;28;20201;-68
2022/09/27 10:51:24;;;;;;;0.40;0.40;;;17.40;99.90;;;;;;5037218;28;20285;-68
2022/09/27 10:54:23;;;;;;;0.40;0.40;;;17.60;99.90;;;;;;5051213;28;20197;-70
2022/09/27 10:57:19;;;;;;;0.40;0.40;;;17.70;99.90;;;;;;5051549;28;20741;-71
2022/09/27 11:00:22;;;;;;;0.40;0.40;;;17.60;99.90;;;;;;5042521;28;20210;-69
2022/09/27 11:03:15;;;;;;;0.40;0.40;;;17.50;99.90;;;;;;5034274;28;20205;-69
2022/09/27 11:06:20;;;;;;;0.50;0.50;;;16.90;99.90;;;;;;5043285;28;20225;-71
2022/09/27 11:09:18;;;;;;;0.57;0.57;;;16.10;99.90;;;;;;5054598;28;20781;-67
2022/09/27 11:12:12;;;;;;;0.40;0.40;;;14.30;99.90;;;;;;5051787;28;20202;-69
2022/09/27 11:15:03;;;;;;;0.50;0.50;;;12.70;99.90;;;;;;5054543;28;20213;-69
2022/09/27 11:18:01;;;;;;;0.40;0.40;;;12.70;99.90;;;;;;5054747;28;21170;-69
2022/09/27 11:20:59;;;;;;;0.40;0.40;;;12.30;99.90;;;;;;5052384;28;20627;-68
2022/09/27 11:24:02;;;;;;;0.60;0.60;;;12.20;99.90;;;;;;5052319;28;20800;-67
2022/09/27 11:27:04;;;;;;;0.50;0.50;;;12.20;99.90;;;;;;5053439;28;20499;-69
2022/09/27 11:30:03;;;;;;;0.50;0.50;;;12.10;99.90;;;;;;5051929;28;20440;-68
2022/09/27 11:33:07;;;;;;;0.50;0.50;;;12.20;99.90;;;;;;5053527;28;21054;-67
2022/09/27 11:36:04;;;;;;;0.80;0.80;;;12.30;99.90;;;;;;5053133;28;20591;-68
2022/09/27 11:39:02;;;;;;;0.40;0.40;;;12.20;99.90;;;;;;5054589;28;20478;-69
2022/09/27 11:42:02;;;;;;;0.50;0.50;;;12.20;99.90;;;;;;5053532;28;20424;-70
2022/09/27 11:45:17;;;;;;;0.40;0.40;;;12.10;99.90;;;;;;5052459;28;20613;-69
2022/09/27 11:48:46;;;;;;;0.50;0.50;;;12.10;99.90;;;;;;5053046;28;20422;-69
2022/09/27 11:51:58;;;;;;;0.40;0.40;;;12.30;99.90;;;;;;5048006;28;20483;-68
2022/09/27 11:55:04;;;;;;;0.50;0.50;;;12.50;99.90;;;;;;5053805;28;20450;-70
2022/09/27 11:58:00;;;;;;;0.40;0.40;;;12.70;99.90;;;;;;5039297;28;20440;-70
2022/09/27 12:01:05;;;;;;;0.50;0.50;;;12.70;99.90;;;;;;5046246;28;20439;-67
2022/09/27 12:04:17;;;;;;;0.40;0.40;;;12.80;99.90;;;;;;5049064;28;20436;-67
2022/09/27 12:07:12;;;;;;;3.90;1.43;;;12.70;99.90;;;;;;5044430;28;20514;-68
2022/09/27 12:10:04;;;;;;;0.80;0.80;;;12.50;99.90;;;;;;5038703;28;20441;-66
2022/09/27 12:12:56;;;;;;;0.40;0.40;;;12.30;99.90;;;;;;5029811;28;20471;-67
2022/09/27 12:15:47;;;;;;;0.50;0.50;;;12.30;99.90;;;;;;5030785;28;20532;-68
2022/09/27 12:18:38;;;;;;;0.50;0.50;;;12.40;99.90;;;;;;5032204;28;20482;-67
2022/09/27 12:21:30;;;;;;;0.40;0.40;;;12.70;99.90;;;;;;5032351;28;20590;-67
2022/09/27 12:24:21;;;;;;;0.60;0.60;;;13.20;99.90;;;;;;5035981;28;20436;-68
2022/09/27 12:27:15;;;;;;;0.77;0.60;;;13.80;99.90;;;;;;5032709;28;20469;-66
2022/09/27 12:30:05;;;;;;;0.40;0.40;;;13.90;99.90;;;;;;5032842;28;20433;-67
2022/09/27 12:33:07;;;;;;;0.50;0.50;;;13.80;99.90;;;;;;5033435;28;20428;-67
2022/09/27 12:36:02;;;;;;;0.70;0.60;;;13.80;99.90;;;;;;5032623;28;20451;-67
2022/09/27 12:38:56;;;;;;;0.47;0.47;;;13.60;99.90;;;;;;5032558;28;20524;-67
2022/09/27 12:41:49;;;;;;;0.40;0.40;;;13.60;99.90;;;;;;5040502;28;20440;-68
2022/09/27 12:44:39;;;;;;;0.50;0.50;;;13.70;99.90;;;;;;5034240;28;20816;-68
2022/09/27 12:47:54;;;;;;;0.50;0.50;;;13.70;99.90;;;;;;5036675;28;20447;-66
2022/09/27 12:50:46;;;;;;;0.40;0.40;;;13.80;99.90;;;;;;5049885;28;20519;-68
2022/09/27 12:53:50;;;;;;;0.40;0.40;;;13.90;99.90;;;;;;5050927;28;20452;-67
2022/09/27 12:56:50;;;;;;;0.50;0.50;;;14.10;99.90;;;;;;5052764;28;20521;-70
2022/09/27 12:59:54;;;;;;;0.40;0.40;;;14.50;99.90;;;;;;5048563;28;20490;-68
2022/09/27 13:03:07;;;;;;;0.40;0.40;;;14.90;99.90;;;;;;5042990;28;20890;-70
2022/09/27 13:06:30;;;;;;;0.40;0.40;;;15.40;99.90;;;;;;5048870;28;20475;-69
2022/09/27 13:10:03;;;;;;;0.50;0.50;;;15.40;99.90;;;;;;5050337;28;20206;-70
2022/09/27 13:12:54;;;;;;;0.40;0.40;;;15.00;99.90;;;;;;4969011;28;20739;-67
2022/09/27 13:15:45;;;;;;;0.40;0.40;;;14.70;99.90;;;;;;5049954;28;20221;-69
2022/09/27 13:18:54;;;;;;;0.53;0.47;;;14.70;99.90;;;;;;5050758;28;20205;-69
2022/09/27 13:21:58;;;;;;;0.60;0.60;;;14.80;99.90;;;;;;5052829;28;20209;-68
2022/09/27 13:24:48;;;;;;;1.10;0.90;;;14.40;99.90;;;;;;5055039;28;20438;-68
2022/09/27 13:27:40;;;;;;;0.40;0.40;;;14.20;99.90;;;;;;5055739;28;20511;-67
2022/09/27 13:30:46;;;;;;;0.40;0.40;;;14.20;99.90;;;;;;5054527;28;20203;-67
2022/09/27 13:33:46;;;;;;;0.53;0.53;;;14.50;99.90;;;;;;5056226;28;20420;-68
2022/09/27 13:36:34;;;;;;;0.40;0.40;;;14.50;99.90;;;;;;5054171;28;20448;-67
2022/09/27 13:39:22;;;;;;;0.50;0.50;;;14.60;99.90;;;;;;5054712;28;20444;-67
2022/09/27 13:42:28;;;;;;;0.80;0.80;;;14.60;99.90;;;;;;5055263;28;20523;-65
2022/09/27 13:45:28;;;;;;;0.40;0.40;;;14.60;99.90;;;;;;5037550;28;20487;-68
2022/09/27 13:48:20;;;;;;;0.40;0.40;;;15.00;99.90;;;;;;5034781;28;20465;-67
2022/09/27 13:51:20;;;;;;;0.40;0.40;;;15.00;99.90;;;;;;5033682;28;20512;-70
2022/09/27 13:54:50;;;;;;;0.50;0.50;;;14.70;99.90;;;;;;5045695;28;20428;-68
2022/09/27 13:57:47;;;;;;;0.60;0.60;;;14.30;99.90;;;;;;5052880;28;20248;-67
2022/09/27 14:00:41;;;;;;;0.40;0.40;;;13.90;99.90;;;;;;5041228;28;20440;-66
2022/09/27 14:03:31;;;;;;;0.40;0.40;;;13.80;99.90;;;;;;5036575;28;20571;-67
2022/09/27 14:06:22;;;;;;;0.40;0.40;;;13.70;99.90;;;;;;5036929;28;21010;-65
2022/09/27 14:09:18;;;;;;;0.40;0.40;;;13.80;99.90;;;;;;5036353;28;20429;-70
2022/09/27 14:12:11;;;;;;;0.50;0.50;;;13.90;99.90;;;;;;5045878;28;20213;-67
2022/09/27 14:15:01;;;;;;;0.40;0.40;;;14.00;99.90;;;;;;5038947;28;20433;-70
2022/09/27 14:17:50;;;;;;;0.50;0.50;;;14.00;99.90;;;;;;5036435;28;20444;-68
2022/09/27 14:20:41;;;;;;;0.60;0.60;;;14.50;99.90;;;;;;5036000;28;20429;-69
2022/09/27 14:23:30;;;;;;;0.40;0.40;;;14.70;99.90;;;;;;5034718;28;20838;-68
2022/09/27 14:26:24;;;;;;;0.53;0.53;;;14.90;99.90;;;;;;5035615;28;20826;-67
2022/09/27 14:29:16;;;;;;;2.87;0.83;;;14.90;99.90;;;;;;5032806;28;20440;-67
2022/09/27 14:32:08;;;;;;;0.40;0.40;;;14.90;99.90;;;;;;5040220;28;20345;-68
2022/09/27 14:35:06;;;;;;;2.00;0.70;;;14.60;99.90;;;;;;5044541;28;20444;-68
2022/09/27 14:37:53;;;;;;;0.40;0.40;;;14.50;99.90;;;;;;5055436;28;20497;-67
2022/09/27 14:40:43;;;;;;;0.40;0.40;;;14.20;99.90;;;;;;5065709;28;20209;-67
2022/09/27 14:43:31;;;;;;;1.57;1.57;;;14.20;99.90;;;;;;5061128;28;20467;-68
2022/09/27 14:46:28;;;;;;;0.40;0.40;;;14.10;99.90;;;;;;5056840;28;20236;-68
2022/09/27 14:49:20;;;;;;;0.40;0.40;;;14.00;99.90;;;;;;5067389;28;20504;-69
2022/09/27 14:52:20;;;;;;;0.40;0.40;;;14.00;99.90;;;;;;5067685;28;20456;-68
2022/09/27 14:55:13;;;;;;;0.83;0.70;;;13.90;99.90;;;;;;5070336;28;20456;-68
2022/09/27 14:58:03;;;;;;;0.67;0.67;;;13.90;99.90;;;;;;5059820;28;20441;-68
2022/09/27 15:00:52;;;;;;;0.40;0.40;;;13.80;99.90;;;;;;5055573;28;20449;-69
2022/09/27 15:03:41;;;;;;;0.40;0.40;;;13.80;99.90;;;;;;5053758;28;20456;-68
2022/09/27 15:06:32;;;;;;;0.50;0.50;;;13.70;99.90;;;;;;5053072;28;20523;-67
2022/09/27 15:09:23;;;;;;;0.50;0.50;;;13.70;99.90;;;;;;5052341;28;20448;-67